createdAt,value
2019-02-12T00:04:06.339Z,103351.36
2019-02-12T00:09:07.985Z,103353.77
2019-02-12T00:14:09.979Z,103362.31
2019-02-12T00:19:11.973Z,103371.03
2019-02-12T00:24:13.570Z,103379.76
2019-02-12T00:29:15.114Z,103367.02
2019-02-12T00:34:16.698Z,103371.64
2019-02-12T00:39:18.260Z,103374.80
2019-02-12T00:44:19.788Z,103373.66
2019-02-12T00:49:21.762Z,103374.61
2019-02-12T00:54:24.189Z,103380.20
2019-02-12T00:59:26.009Z,103385.25
2019-02-12T01:04:27.957Z,103383.95
2019-02-12T01:09:29.472Z,103382.09
2019-02-12T01:14:31.463Z,103388.58
2019-02-12T01:19:33.314Z,103386.77
2019-02-12T01:24:35.264Z,103395.64
2019-02-12T01:29:36.793Z,103382.53
2019-02-12T01:34:38.337Z,103386.26
2019-02-12T01:39:39.961Z,103387.36
2019-02-12T01:44:41.857Z,103391.45
2019-02-12T01:49:43.426Z,103390.36
2019-02-12T01:54:45.032Z,103391.66
2019-02-12T01:59:46.579Z,103395.20
2019-02-12T02:04:48.141Z,103396.14
2019-02-12T02:09:50.037Z,103398.73
2019-02-12T02:14:51.730Z,103397.81
2019-02-12T02:19:53.293Z,103385.06
2019-02-12T02:24:54.887Z,103393.97
2019-02-12T02:29:56.470Z,103393.77
2019-02-12T02:34:58.009Z,103384.34
2019-02-12T02:39:59.533Z,103391.02
2019-02-12T02:45:01.095Z,103375.33
2019-02-12T02:50:03.459Z,103380.88
2019-02-12T02:55:05.211Z,103384.77
2019-02-12T03:00:07.359Z,103388.13
2019-02-12T03:05:09.279Z,103385.70
2019-02-12T03:10:10.851Z,103392.02
2019-02-12T03:15:12.425Z,103391.64
2019-02-12T03:20:13.994Z,103397.91
2019-02-12T03:25:15.535Z,103397.34
2019-02-12T03:30:17.099Z,103409.16
2019-02-12T03:35:18.698Z,103401.91
2019-02-12T03:40:20.226Z,103407.45
2019-02-12T03:45:21.805Z,103410.95
2019-02-12T03:50:23.361Z,103400.88
2019-02-12T03:55:24.907Z,103397.64
2019-02-12T04:00:26.443Z,103404.62
2019-02-12T04:05:28.019Z,103405.70
2019-02-12T04:10:29.715Z,103405.68
2019-02-12T04:15:31.295Z,103401.22
2019-02-12T04:20:33.301Z,103393.80
2019-02-12T04:25:35.555Z,103396.40
2019-02-12T04:30:37.106Z,103397.84
2019-02-12T04:35:39.046Z,103396.86
2019-02-12T04:40:40.635Z,103393.82
2019-02-12T04:45:42.160Z,103392.89
2019-02-12T04:50:43.803Z,103390.66
2019-02-12T04:55:45.437Z,103399.01
2019-02-12T05:00:47.012Z,103400.32
2019-02-12T05:05:48.559Z,103402.53
2019-02-12T05:10:58.413Z,103392.16
2019-02-12T05:15:59.969Z,103385.69
2019-02-12T05:21:01.862Z,103396.66
2019-02-12T05:26:03.425Z,103402.27
2019-02-12T05:31:04.974Z,103407.69
2019-02-12T05:36:06.579Z,103400.50
2019-02-12T05:41:08.700Z,103404.77
2019-02-12T05:46:10.291Z,103408.86
2019-02-12T05:51:11.919Z,103407.73
2019-02-12T05:56:13.480Z,103394.03
2019-02-12T06:01:15.963Z,103399.78
2019-02-12T06:06:17.917Z,103401.09
2019-02-12T06:11:19.459Z,103398.72
2019-02-12T06:16:21.124Z,103403.03
2019-02-12T06:21:22.651Z,103406.00
2019-02-12T06:26:24.225Z,103409.95
2019-02-12T06:31:26.107Z,103404.05
2019-02-12T06:36:27.708Z,103405.93
2019-02-12T06:41:29.316Z,103418.36
2019-02-12T06:46:31.402Z,103415.58
2019-02-12T06:51:32.917Z,103422.97
2019-02-12T06:56:34.487Z,103430.17
2019-02-12T07:01:35.985Z,103445.50
2019-02-12T07:07:29.342Z,103449.91
2019-02-12T07:12:56.751Z,103449.69
2019-02-12T07:18:29.673Z,103451.48
2019-02-12T07:24:07.923Z,103464.95
2019-02-12T07:29:57.009Z,103470.98
2019-02-12T07:35:32.473Z,103473.70
2019-02-12T07:41:25.115Z,103483.00
2019-02-12T07:46:51.867Z,103485.70
2019-02-12T07:52:19.415Z,103477.84
2019-02-12T07:58:01.797Z,103480.05
2019-02-12T08:03:32.920Z,103494.80
2019-02-12T08:08:49.975Z,103510.13
2019-02-12T08:14:15.016Z,103491.27
2019-02-12T08:19:39.758Z,103498.23
2019-02-12T08:25:20.437Z,103480.05
2019-02-12T08:30:49.953Z,103487.02
2019-02-12T08:36:14.641Z,103490.83
2019-02-12T08:41:56.842Z,103504.87
2019-02-12T08:47:47.438Z,103509.01
2019-02-12T08:53:31.667Z,103511.11
2019-02-12T08:59:17.393Z,103508.94
2019-02-12T09:05:01.312Z,103506.68
2019-02-12T09:10:44.669Z,103515.11
2019-02-12T09:16:18.594Z,103511.50
2019-02-12T09:22:23.218Z,103505.72
2019-02-12T09:28:08.846Z,103524.70
2019-02-12T09:33:45.117Z,103521.09
2019-02-12T09:39:30.662Z,103529.78
2019-02-12T09:45:35.539Z,103543.13
2019-02-12T09:51:07.079Z,103542.42
2019-02-12T09:56:23.270Z,103546.62
2019-02-12T10:01:52.835Z,103548.56
2019-02-12T10:07:20.183Z,103546.42
2019-02-12T10:12:49.714Z,103542.27
2019-02-12T10:18:54.369Z,103545.08
2019-02-12T10:24:34.790Z,103545.47
2019-02-12T10:30:11.214Z,103549.81
2019-02-12T10:35:13.070Z,103560.14
2019-02-12T10:40:14.633Z,103557.12
2019-02-12T10:45:16.206Z,103565.53
2019-02-12T10:50:17.727Z,103566.07
2019-02-12T10:55:19.693Z,103559.53
2019-02-12T11:00:21.999Z,103566.20
2019-02-12T11:05:23.564Z,103572.18
2019-02-12T11:10:25.736Z,103569.14
2019-02-12T11:15:27.308Z,103567.39
2019-02-12T11:20:28.854Z,103569.34
2019-02-12T11:25:30.569Z,103568.41
2019-02-12T11:30:32.715Z,103550.73
2019-02-12T11:35:34.388Z,103551.62
2019-02-12T11:40:36.467Z,103552.89
2019-02-12T11:45:38.058Z,103545.98
2019-02-12T11:50:39.867Z,103537.59
2019-02-12T11:55:41.552Z,103532.13
2019-02-12T12:00:43.481Z,103520.14
2019-02-12T12:05:45.049Z,103518.40
2019-02-12T12:10:46.887Z,103512.81
2019-02-12T12:15:48.441Z,103518.78
2019-02-12T12:20:52.867Z,103518.73
2019-02-12T12:25:54.442Z,103522.58
2019-02-12T12:30:56.113Z,103510.97
2019-02-12T12:35:58.234Z,103509.14
2019-02-12T12:40:59.810Z,103502.39
2019-02-12T12:46:02.417Z,103502.39
2019-02-12T12:51:04.056Z,103494.30
2019-02-12T12:56:05.610Z,103487.67
2019-02-12T13:01:07.545Z,103493.95
2019-02-12T13:06:09.113Z,103499.34
2019-02-12T13:11:10.721Z,103499.34
2019-02-12T13:16:13.141Z,103498.83
2019-02-12T13:21:14.844Z,103506.02
2019-02-12T13:26:16.625Z,103503.41
2019-02-12T13:31:18.316Z,103508.66
2019-02-12T13:36:19.853Z,103500.90
2019-02-12T13:41:21.426Z,103500.19
2019-02-12T13:46:23.415Z,103500.57
2019-02-12T13:51:25.048Z,103492.20
2019-02-12T13:56:26.669Z,103494.31
2019-02-12T14:01:28.175Z,103489.31
2019-02-12T14:06:33.176Z,103505.28
2019-02-12T14:11:35.259Z,103496.56
2019-02-12T14:16:36.872Z,103494.42
2019-02-12T14:21:38.466Z,103509.59
2019-02-12T14:26:40.061Z,103501.04
2019-02-12T14:31:41.967Z,103503.53
2019-02-12T14:36:43.603Z,103493.33
2019-02-12T14:41:45.219Z,103500.56
2019-02-12T14:46:46.817Z,103501.88
2019-02-12T14:51:48.634Z,103493.52
2019-02-12T14:56:50.334Z,103494.34
2019-02-12T15:01:52.477Z,103497.92
2019-02-12T15:06:54.066Z,103503.97
2019-02-12T15:12:04.730Z,103502.81
2019-02-12T15:17:06.347Z,103502.86
2019-02-12T15:22:08.935Z,103499.86
2019-02-12T15:27:10.609Z,103502.74
2019-02-12T15:32:12.379Z,103499.21
2019-02-12T15:37:14.114Z,103499.23
2019-02-12T15:42:15.784Z,103504.70
2019-02-12T15:47:17.479Z,103509.68
2019-02-12T15:52:19.174Z,103512.37
2019-02-12T15:57:22.564Z,103512.98
2019-02-12T16:02:24.574Z,103505.77
2019-02-12T16:07:26.169Z,103506.03
2019-02-12T16:12:28.555Z,103511.53
2019-02-12T16:17:30.337Z,103517.54
2019-02-12T16:22:31.888Z,103509.28
2019-02-12T16:27:33.504Z,103507.41
2019-02-12T16:32:35.218Z,103506.30
2019-02-12T16:37:37.238Z,103506.85
2019-02-12T16:42:38.966Z,103512.24
2019-02-12T16:47:40.682Z,103493.16
2019-02-12T16:52:44.403Z,103501.58
2019-02-12T16:57:46.033Z,103488.02
2019-02-12T17:02:47.614Z,103495.85
2019-02-12T17:07:49.871Z,103503.07
2019-02-12T17:12:51.403Z,103509.48
2019-02-12T17:17:54.223Z,103515.17
2019-02-12T17:22:55.953Z,103512.00
2019-02-12T17:27:57.677Z,103510.61
2019-02-12T17:33:04.625Z,103512.80
2019-02-12T17:38:06.206Z,103509.75
2019-02-12T17:43:07.790Z,103527.82
2019-02-12T17:48:09.427Z,103528.02
2019-02-12T17:53:11.069Z,103531.95
2019-02-12T17:58:12.637Z,103529.49
2019-02-12T18:03:15.298Z,103527.96
2019-02-12T18:08:19.295Z,103537.31
2019-02-12T18:13:21.052Z,103539.48
2019-02-12T18:18:23.310Z,103536.26
2019-02-12T18:23:26.010Z,103537.95
2019-02-12T18:28:35.367Z,103537.06
2019-02-12T18:33:37.219Z,103534.45
2019-02-12T18:38:39.892Z,103531.61
2019-02-12T18:43:41.442Z,103535.69
2019-02-12T18:48:43.027Z,103546.88
2019-02-12T18:53:44.632Z,103551.02
2019-02-12T18:58:46.244Z,103557.67
2019-02-12T19:03:48.874Z,103567.47
2019-02-12T19:08:50.818Z,103562.80
2019-02-12T19:13:52.471Z,103567.38
2019-02-12T19:18:54.280Z,103554.12
2019-02-12T19:23:55.926Z,103546.42
2019-02-12T19:28:57.612Z,103546.88
2019-02-12T19:33:59.848Z,103540.80
2019-02-12T19:39:01.907Z,103542.66
2019-02-12T19:44:03.755Z,103548.25
2019-02-12T19:49:05.326Z,103542.66
2019-02-12T19:54:07.103Z,103545.27
2019-02-12T19:59:10.215Z,103556.99
2019-02-12T20:04:13.741Z,103548.48
2019-02-12T20:09:16.038Z,103551.28
2019-02-12T20:14:17.913Z,103549.84
2019-02-12T20:19:19.631Z,103556.59
2019-02-12T20:24:22.827Z,103557.95
2019-02-12T20:29:24.523Z,103560.98
2019-02-12T20:34:26.370Z,103548.04
2019-02-12T20:39:29.668Z,103547.77
2019-02-12T20:44:31.772Z,103560.85
2019-02-12T20:49:33.583Z,103566.52
2019-02-12T20:54:35.376Z,103571.45
2019-02-12T20:59:37.014Z,103563.92
2019-02-12T21:04:38.711Z,103563.83
2019-02-12T21:09:40.847Z,103572.24
2019-02-12T21:14:42.484Z,103573.36
2019-02-12T21:19:44.154Z,103579.35
2019-02-12T21:24:46.912Z,103596.70
2019-02-12T21:29:48.572Z,103591.94
2019-02-12T21:34:50.428Z,103615.56
2019-02-12T21:39:52.037Z,103615.74
2019-02-12T21:44:53.646Z,103621.92
2019-02-12T21:49:55.268Z,103612.50
2019-02-12T21:54:56.864Z,103608.27
2019-02-12T21:59:58.517Z,103601.47
2019-02-12T22:05:00.451Z,103597.69
2019-02-12T22:10:02.816Z,103604.05
2019-02-12T22:15:04.712Z,103620.27
2019-02-12T22:20:07.620Z,103610.90
2019-02-12T22:25:09.487Z,103616.14
2019-02-12T22:30:13.498Z,103609.86
2019-02-12T22:35:15.071Z,103613.05
2019-02-12T22:40:16.669Z,103616.40
2019-02-12T22:45:18.300Z,103618.52
2019-02-12T22:50:19.885Z,103630.63
2019-02-12T22:55:21.504Z,103637.73
2019-02-12T23:00:32.349Z,103632.38
2019-02-12T23:05:34.378Z,103636.65
2019-02-12T23:10:36.275Z,103649.66
2019-02-12T23:15:37.926Z,103648.84
2019-02-12T23:20:39.498Z,103640.11
2019-02-12T23:25:41.581Z,103639.77
2019-02-12T23:30:43.170Z,103629.25
2019-02-12T23:35:45.183Z,103626.20
2019-02-12T23:40:46.741Z,103623.26
2019-02-12T23:45:48.314Z,103636.36
2019-02-12T23:50:50.362Z,103646.76
2019-02-12T23:55:51.902Z,103645.02
